createdAt,value
2017-09-28T00:01:11.094Z,40.77
2017-09-28T00:03:38.661Z,37.80
2017-09-28T00:06:06.211Z,42.17
2017-09-28T00:08:33.776Z,36.23
2017-09-28T00:11:01.332Z,35.47
2017-09-28T00:13:28.912Z,44.73
2017-09-28T00:15:56.473Z,46.93
2017-09-28T00:18:24.106Z,38.53
2017-09-28T00:20:51.686Z,43.33
2017-09-28T00:23:19.243Z,38.23
2017-09-28T00:25:46.813Z,46.97
2017-09-28T00:28:14.367Z,37.83
2017-09-28T00:30:41.906Z,42.17
2017-09-28T00:33:10.290Z,44.77
2017-09-28T00:35:38.604Z,39.67
2017-09-28T00:38:06.169Z,34.27
2017-09-28T00:40:33.732Z,40.13
2017-09-28T00:43:01.301Z,32.97
2017-09-28T00:45:28.917Z,40.33
2017-09-28T00:47:57.256Z,36.67
2017-09-28T00:50:24.831Z,33.40
2017-09-28T00:52:52.370Z,36.50
2017-09-28T00:55:19.942Z,36.57
2017-09-28T00:57:49.000Z,54.77
2017-09-28T01:00:16.561Z,41.57
2017-09-28T01:02:44.129Z,32.27
2017-09-28T01:05:11.669Z,33.47
2017-09-28T01:07:39.233Z,30.60
2017-09-28T01:10:06.788Z,34.30
2017-09-28T01:12:35.111Z,36.73
2017-09-28T01:15:02.677Z,32.83
2017-09-28T01:17:30.225Z,35.87
2017-09-28T01:19:57.852Z,36.13
2017-09-28T01:22:26.170Z,32.00
2017-09-28T01:24:53.714Z,29.73
2017-09-28T01:27:21.301Z,39.47
2017-09-28T01:29:48.857Z,33.50
2017-09-28T01:32:16.408Z,33.47
2017-09-28T01:34:43.973Z,28.13
2017-09-28T01:37:11.512Z,41.30
2017-09-28T01:39:39.087Z,27.37
2017-09-28T01:42:06.642Z,29.97
2017-09-28T01:44:34.972Z,32.63
2017-09-28T01:47:02.560Z,35.30
2017-09-28T01:49:30.884Z,36.37
2017-09-28T01:51:58.447Z,35.73
2017-09-28T01:54:25.980Z,34.90
2017-09-28T01:56:53.551Z,40.53
2017-09-28T01:59:21.234Z,34.33
2017-09-28T02:01:48.773Z,37.40
2017-09-28T02:04:16.366Z,40.17
2017-09-28T02:06:43.901Z,36.47
2017-09-28T02:09:11.456Z,28.80
2017-09-28T02:11:39.038Z,34.37
2017-09-28T02:14:06.597Z,40.53
2017-09-28T02:16:34.128Z,38.83
2017-09-28T02:19:02.467Z,38.30
2017-09-28T02:21:30.006Z,38.10
2017-09-28T02:23:57.581Z,35.57
2017-09-28T02:26:25.123Z,34.20
2017-09-28T02:28:52.675Z,34.20
2017-09-28T02:31:20.260Z,38.23
2017-09-28T02:33:47.814Z,33.67
2017-09-28T02:36:15.340Z,41.63
2017-09-28T02:38:43.675Z,36.50
2017-09-28T02:41:11.234Z,40.07
2017-09-28T02:43:38.794Z,43.13
2017-09-28T02:46:06.348Z,35.63
2017-09-28T02:48:33.882Z,35.60
2017-09-28T02:51:01.434Z,46.73
2017-09-28T02:53:28.979Z,39.73
2017-09-28T02:55:57.316Z,35.47
2017-09-28T02:58:24.865Z,50.60
2017-09-28T03:00:52.398Z,33.40
2017-09-28T03:03:20.730Z,33.40
2017-09-28T03:05:48.284Z,38.03
2017-09-28T03:08:15.822Z,34.50
2017-09-28T03:10:43.380Z,35.17
2017-09-28T03:13:10.927Z,40.40
2017-09-28T03:15:38.502Z,36.53
2017-09-28T03:18:06.065Z,34.80
2017-09-28T03:20:33.656Z,41.80
2017-09-28T03:23:01.219Z,38.00
2017-09-28T03:25:28.767Z,39.83
2017-09-28T03:27:56.329Z,41.00
2017-09-28T03:30:23.862Z,51.10
2017-09-28T03:32:51.419Z,40.50
2017-09-28T03:35:19.019Z,32.50
2017-09-28T03:37:46.552Z,38.97
2017-09-28T03:40:14.100Z,37.07
2017-09-28T03:42:42.439Z,39.83
2017-09-28T03:45:09.976Z,48.83
2017-09-28T03:47:37.526Z,42.30
2017-09-28T03:50:05.083Z,42.47
2017-09-28T03:52:32.659Z,52.80
2017-09-28T03:55:00.239Z,38.80
2017-09-28T03:57:27.791Z,45.97
2017-09-28T03:59:55.348Z,44.13
2017-09-28T04:02:22.935Z,42.77
2017-09-28T04:04:50.501Z,45.90
2017-09-28T04:07:18.054Z,41.10
2017-09-28T04:09:45.626Z,35.50
2017-09-28T04:12:13.165Z,50.07
2017-09-28T04:14:40.721Z,47.17
2017-09-28T04:17:08.298Z,32.67
2017-09-28T04:19:35.888Z,42.27
2017-09-28T04:22:03.452Z,38.57
2017-09-28T04:24:31.791Z,42.80
2017-09-28T04:26:59.352Z,32.80
2017-09-28T04:29:26.883Z,35.87
2017-09-28T04:31:54.469Z,52.87
2017-09-28T04:34:22.010Z,39.07
2017-09-28T04:36:49.564Z,34.90
2017-09-28T04:39:17.150Z,39.80
2017-09-28T04:41:44.704Z,34.43
2017-09-28T04:44:12.251Z,43.60
2017-09-28T04:46:39.834Z,40.43
2017-09-28T04:49:07.387Z,49.93
2017-09-28T04:51:34.948Z,39.20
2017-09-28T04:54:02.494Z,48.67
2017-09-28T04:56:30.056Z,40.07
2017-09-28T04:58:57.639Z,42.87
2017-09-28T05:01:25.182Z,44.43
2017-09-28T05:03:52.725Z,38.57
2017-09-28T05:06:21.075Z,39.17
2017-09-28T05:08:48.618Z,36.93
2017-09-28T05:11:16.928Z,64.60
2017-09-28T05:13:44.498Z,44.27
2017-09-28T05:16:12.048Z,39.87
2017-09-28T05:18:39.631Z,47.90
2017-09-28T05:21:07.212Z,48.33
2017-09-28T05:23:34.755Z,50.57
2017-09-28T05:26:03.096Z,52.40
2017-09-28T05:28:30.641Z,41.60
2017-09-28T05:30:58.224Z,59.47
2017-09-28T05:33:25.779Z,48.60
2017-09-28T05:35:53.347Z,43.20
2017-09-28T05:38:20.922Z,50.40
2017-09-28T05:40:48.480Z,46.10
2017-09-28T05:43:16.068Z,55.57
2017-09-28T05:45:44.384Z,45.47
2017-09-28T05:48:11.917Z,44.30
2017-09-28T05:50:40.264Z,40.40
2017-09-28T05:53:07.809Z,51.43
2017-09-28T05:55:35.374Z,41.00
2017-09-28T05:58:02.909Z,41.23
2017-09-28T06:00:30.475Z,39.20
2017-09-28T06:02:58.064Z,46.00
2017-09-28T06:05:25.605Z,42.43
2017-09-28T06:07:53.523Z,45.43
2017-09-28T06:10:21.461Z,50.17
2017-09-28T06:12:49.621Z,46.97
2017-09-28T06:15:17.189Z,40.27
2017-09-28T06:17:44.753Z,39.03
2017-09-28T06:20:12.290Z,48.07
2017-09-28T06:22:39.841Z,46.33
2017-09-28T06:25:07.410Z,49.57
2017-09-28T06:27:34.963Z,42.33
2017-09-28T06:30:03.278Z,40.37
2017-09-28T06:32:30.849Z,48.90
2017-09-28T06:34:58.384Z,50.70
2017-09-28T06:37:25.951Z,45.53
2017-09-28T06:39:53.503Z,36.70
2017-09-28T06:42:21.042Z,40.20
2017-09-28T06:44:49.374Z,44.40
2017-09-28T06:47:16.908Z,40.00
2017-09-28T06:49:44.484Z,48.60
2017-09-28T06:52:12.050Z,39.33
2017-09-28T06:54:39.610Z,33.20
2017-09-28T06:57:07.200Z,41.37
2017-09-28T06:59:34.835Z,40.27
2017-09-28T07:02:02.420Z,51.97
2017-09-28T07:04:29.961Z,41.60
2017-09-28T07:06:57.517Z,39.73
2017-09-28T07:09:25.063Z,39.57
2017-09-28T07:11:52.648Z,44.13
2017-09-28T07:14:20.187Z,39.40
2017-09-28T07:16:47.735Z,41.57
2017-09-28T07:19:16.057Z,45.60
2017-09-28T07:21:43.584Z,41.50
2017-09-28T07:24:11.168Z,41.63
2017-09-28T07:26:38.717Z,39.47
2017-09-28T07:29:06.262Z,36.37
2017-09-28T07:31:34.584Z,42.20
2017-09-28T07:34:02.236Z,43.83
2017-09-28T07:36:29.801Z,45.00
2017-09-28T07:38:57.341Z,46.23
2017-09-28T07:41:24.920Z,38.07
2017-09-28T07:43:52.451Z,53.13
2017-09-28T07:46:20.010Z,48.67
2017-09-28T07:48:48.309Z,38.63
2017-09-28T07:51:15.870Z,44.50
2017-09-28T07:53:43.415Z,41.90
2017-09-28T07:56:10.968Z,43.57
2017-09-28T07:58:39.293Z,49.77
2017-09-28T08:01:06.833Z,39.50
2017-09-28T08:03:34.405Z,43.43
2017-09-28T08:06:01.949Z,47.47
2017-09-28T08:08:29.487Z,34.63
2017-09-28T08:10:57.824Z,36.23
2017-09-28T08:13:25.387Z,36.43
2017-09-28T08:15:52.974Z,50.70
2017-09-28T08:18:20.512Z,37.53
2017-09-28T08:20:48.048Z,34.80
2017-09-28T08:23:15.609Z,30.87
2017-09-28T08:25:43.168Z,38.33
2017-09-28T08:28:10.807Z,40.43
2017-09-28T08:30:39.120Z,40.10
2017-09-28T08:33:06.666Z,38.77
2017-09-28T08:35:34.238Z,35.60
2017-09-28T08:38:01.815Z,40.00
2017-09-28T08:40:29.390Z,36.63
2017-09-28T08:42:57.722Z,50.03
2017-09-28T08:45:26.059Z,36.80
2017-09-28T08:47:53.608Z,41.17
2017-09-28T08:50:21.182Z,43.00
2017-09-28T08:52:48.744Z,42.60
2017-09-28T08:55:16.280Z,50.93
2017-09-28T08:57:43.946Z,38.43
2017-09-28T09:00:11.508Z,40.20
2017-09-28T09:02:39.090Z,42.67
2017-09-28T09:05:06.730Z,37.23
2017-09-28T09:07:34.324Z,49.93
2017-09-28T09:10:01.869Z,36.03
2017-09-28T09:12:29.488Z,39.27
2017-09-28T09:14:57.064Z,34.73
2017-09-28T09:17:24.882Z,43.07
2017-09-28T09:19:52.470Z,47.80
2017-09-28T09:22:23.554Z,41.97
2017-09-28T09:24:51.098Z,37.37
2017-09-28T09:27:18.660Z,42.40
2017-09-28T09:29:46.225Z,36.43
2017-09-28T09:32:13.811Z,35.40
2017-09-28T09:34:41.382Z,41.27
2017-09-28T09:37:10.255Z,38.00
2017-09-28T09:39:38.498Z,40.43
2017-09-28T09:42:06.908Z,41.00
2017-09-28T09:44:34.604Z,39.20
2017-09-28T09:47:02.199Z,47.03
2017-09-28T09:49:30.515Z,36.57
2017-09-28T09:51:58.077Z,42.93
2017-09-28T09:54:25.634Z,34.97
2017-09-28T09:56:53.217Z,58.63
2017-09-28T09:59:20.877Z,45.07
2017-09-28T10:01:48.466Z,37.10
2017-09-28T10:04:16.017Z,31.47
2017-09-28T10:06:45.580Z,44.00
2017-09-28T10:09:18.021Z,46.87
2017-09-28T10:11:49.057Z,38.93
2017-09-28T10:14:20.461Z,37.27
2017-09-28T10:16:47.997Z,39.07
2017-09-28T10:19:16.339Z,32.90
2017-09-28T10:21:43.868Z,40.37
2017-09-28T10:24:11.430Z,38.47
2017-09-28T10:26:38.964Z,39.97
2017-09-28T10:29:07.284Z,39.50
2017-09-28T10:31:34.839Z,33.23
2017-09-28T10:34:02.370Z,33.53
2017-09-28T10:36:30.701Z,33.10
2017-09-28T10:38:59.043Z,30.53
2017-09-28T10:41:27.353Z,44.53
2017-09-28T10:43:54.915Z,41.33
2017-09-28T10:46:22.466Z,39.93
2017-09-28T10:48:50.026Z,34.70
2017-09-28T10:51:17.558Z,37.43
2017-09-28T10:53:45.867Z,39.67
2017-09-28T10:56:13.440Z,25.83
2017-09-28T10:58:40.977Z,37.90
2017-09-28T11:01:08.548Z,39.97
2017-09-28T11:03:36.104Z,32.27
2017-09-28T11:06:03.677Z,34.33
2017-09-28T11:08:31.216Z,30.93
2017-09-28T11:10:59.542Z,29.70
2017-09-28T11:13:27.073Z,39.10
2017-09-28T11:15:54.619Z,40.20
2017-09-28T11:18:22.969Z,32.10
2017-09-28T11:20:51.308Z,36.80
2017-09-28T11:23:19.640Z,40.53
2017-09-28T11:25:47.955Z,40.50
2017-09-28T11:28:15.563Z,37.77
2017-09-28T11:30:43.090Z,32.90
2017-09-28T11:33:10.675Z,35.33
2017-09-28T11:35:38.202Z,51.20
2017-09-28T11:38:05.760Z,36.87
2017-09-28T11:40:33.313Z,36.33
2017-09-28T11:43:00.860Z,52.50
2017-09-28T11:45:29.199Z,36.20
2017-09-28T11:47:56.735Z,46.77
2017-09-28T11:50:24.308Z,37.50
2017-09-28T11:52:51.871Z,38.37
2017-09-28T11:55:19.397Z,39.97
2017-09-28T11:57:46.964Z,41.17
2017-09-28T12:00:14.507Z,43.60
2017-09-28T12:02:42.809Z,44.97
2017-09-28T12:05:10.376Z,38.43
2017-09-28T12:07:37.928Z,37.93
2017-09-28T12:10:05.481Z,39.63
2017-09-28T12:12:33.783Z,39.80
2017-09-28T12:15:01.350Z,45.97
2017-09-28T12:17:28.889Z,43.77
2017-09-28T12:19:56.443Z,34.43
2017-09-28T12:22:24.763Z,34.40
2017-09-28T12:24:52.293Z,45.47
2017-09-28T12:27:19.891Z,39.63
2017-09-28T12:29:47.416Z,34.00
2017-09-28T12:32:14.973Z,42.20
2017-09-28T12:34:42.543Z,43.60
2017-09-28T12:37:10.088Z,49.60
2017-09-28T12:39:38.419Z,38.30
2017-09-28T12:42:05.955Z,36.07
2017-09-28T12:44:33.548Z,40.27
2017-09-28T12:47:01.087Z,35.73
2017-09-28T12:49:28.645Z,36.53
2017-09-28T12:51:56.169Z,44.77
2017-09-28T12:54:25.239Z,38.10
2017-09-28T12:56:52.787Z,35.70
2017-09-28T12:59:20.366Z,35.80
2017-09-28T13:01:47.926Z,36.20
2017-09-28T13:04:15.776Z,37.63
2017-09-28T13:06:43.344Z,42.20
2017-09-28T13:09:10.868Z,35.13
2017-09-28T13:11:38.429Z,33.60
2017-09-28T13:14:05.971Z,46.00
2017-09-28T13:16:34.265Z,26.40
2017-09-28T13:19:01.835Z,22.87
2017-09-28T13:21:29.384Z,17.23
2017-09-28T13:23:57.723Z,22.13
2017-09-28T13:26:25.272Z,12.73
2017-09-28T13:28:52.828Z,16.57
2017-09-28T13:31:20.373Z,15.33
2017-09-28T13:33:47.947Z,15.83
2017-09-28T13:36:15.504Z,15.20
2017-09-28T13:38:43.037Z,17.57
2017-09-28T13:41:10.593Z,24.40
2017-09-28T13:43:38.895Z,29.63
2017-09-28T13:46:06.568Z,24.73
2017-09-28T13:48:34.044Z,29.87
2017-09-28T13:51:01.592Z,31.73
2017-09-28T13:53:29.148Z,42.03
2017-09-28T13:55:56.671Z,31.10
2017-09-28T13:58:25.027Z,28.53
2017-09-28T14:00:52.562Z,35.77
2017-09-28T14:03:20.218Z,44.00
2017-09-28T14:05:47.792Z,34.17
2017-09-28T14:08:15.325Z,34.33
2017-09-28T14:10:42.879Z,35.40
2017-09-28T14:13:10.412Z,39.87
2017-09-28T14:15:37.984Z,38.73
2017-09-28T14:18:06.304Z,30.40
2017-09-28T14:20:33.884Z,31.37
2017-09-28T14:23:01.430Z,35.63
2017-09-28T14:25:28.968Z,39.17
2017-09-28T14:27:56.535Z,35.77
2017-09-28T14:30:24.094Z,31.93
2017-09-28T14:32:51.667Z,35.73
2017-09-28T14:35:19.193Z,35.87
2017-09-28T14:37:47.508Z,35.40
2017-09-28T14:40:15.094Z,37.27
2017-09-28T14:42:42.642Z,38.37
2017-09-28T14:45:10.210Z,50.10
2017-09-28T14:47:37.746Z,36.93
2017-09-28T14:50:05.292Z,34.30
2017-09-28T14:52:33.712Z,38.27
2017-09-28T14:55:01.259Z,35.47
2017-09-28T14:57:28.840Z,52.67
2017-09-28T14:59:56.398Z,44.13
2017-09-28T15:02:23.961Z,43.27
2017-09-28T15:04:51.517Z,35.67
2017-09-28T15:07:19.063Z,38.13
2017-09-28T15:09:46.620Z,39.60
2017-09-28T15:12:14.168Z,30.20
2017-09-28T15:14:42.462Z,41.83
2017-09-28T15:17:10.516Z,39.40
2017-09-28T15:19:38.828Z,40.60
2017-09-28T15:22:06.391Z,42.93
2017-09-28T15:24:33.927Z,36.73
2017-09-28T15:27:02.244Z,56.77
2017-09-28T15:29:29.815Z,34.73
2017-09-28T15:31:57.347Z,32.57
2017-09-28T15:34:24.914Z,38.27
2017-09-28T15:36:52.445Z,36.90
2017-09-28T15:39:20.750Z,37.93
2017-09-28T15:41:48.300Z,36.17
2017-09-28T15:44:15.849Z,39.73
2017-09-28T15:46:44.192Z,42.80
2017-09-28T15:49:11.735Z,29.90
2017-09-28T15:51:39.261Z,27.80
2017-09-28T15:54:06.817Z,48.70
2017-09-28T15:56:34.371Z,49.43
2017-09-28T15:59:02.706Z,37.77
2017-09-28T16:01:30.237Z,36.70
2017-09-28T16:03:57.762Z,57.07
2017-09-28T16:06:25.336Z,41.13
2017-09-28T16:08:53.668Z,33.17
2017-09-28T16:11:21.240Z,39.47
2017-09-28T16:13:48.866Z,36.93
2017-09-28T16:16:16.421Z,39.97
2017-09-28T16:18:43.983Z,36.23
2017-09-28T16:21:11.564Z,35.47
2017-09-28T16:23:39.138Z,37.03
2017-09-28T16:26:06.674Z,37.57
2017-09-28T16:28:34.210Z,35.27
2017-09-28T16:31:02.548Z,39.50
2017-09-28T16:33:30.077Z,38.60
2017-09-28T16:36:01.722Z,41.50
2017-09-28T16:38:29.267Z,36.70
2017-09-28T16:40:57.565Z,39.60
2017-09-28T16:43:25.149Z,41.40
2017-09-28T16:45:52.693Z,40.50
2017-09-28T16:48:20.258Z,44.57
2017-09-28T16:50:47.808Z,47.40
2017-09-28T16:53:16.135Z,38.27
2017-09-28T16:55:43.709Z,46.33
2017-09-28T16:58:11.324Z,37.77
2017-09-28T17:00:38.887Z,46.17
2017-09-28T17:03:06.425Z,36.33
2017-09-28T17:05:34.721Z,42.60
2017-09-28T17:08:02.284Z,43.23
2017-09-28T17:10:29.828Z,35.13
2017-09-28T17:12:58.176Z,35.60
2017-09-28T17:15:25.727Z,32.90
2017-09-28T17:17:53.275Z,51.80
2017-09-28T17:20:20.846Z,51.90
2017-09-28T17:22:48.375Z,37.23
2017-09-28T17:25:15.941Z,42.40
2017-09-28T17:27:43.473Z,41.40
2017-09-28T17:30:11.793Z,53.27
2017-09-28T17:32:39.391Z,44.83
2017-09-28T17:35:06.927Z,43.07
2017-09-28T17:37:34.493Z,56.33
2017-09-28T17:40:02.049Z,40.23
2017-09-28T17:42:29.601Z,41.43
2017-09-28T17:44:57.168Z,39.60
2017-09-28T17:47:24.711Z,43.53
2017-09-28T17:49:52.282Z,42.20
2017-09-28T17:52:19.810Z,33.00
2017-09-28T17:54:48.128Z,44.63
2017-09-28T17:57:15.699Z,50.40
2017-09-28T17:59:44.000Z,50.47
2017-09-28T18:02:11.576Z,48.60
2017-09-28T18:04:39.151Z,54.80
2017-09-28T18:07:07.474Z,62.00
2017-09-28T18:09:35.046Z,52.00
2017-09-28T18:12:02.576Z,89.30
2017-09-28T18:14:30.999Z,73.03
2017-09-28T18:16:59.301Z,85.77
2017-09-28T18:19:26.824Z,72.97
2017-09-28T18:21:54.399Z,89.53
2017-09-28T18:24:21.948Z,68.53
2017-09-28T18:26:49.531Z,100.33
2017-09-28T18:29:17.061Z,66.23
2017-09-28T18:31:44.612Z,59.73
2017-09-28T18:34:12.175Z,54.03
2017-09-28T18:36:39.723Z,64.83
2017-09-28T18:39:08.065Z,122.90
2017-09-28T18:41:35.604Z,120.50
2017-09-28T18:44:03.142Z,105.67
2017-09-28T18:46:30.696Z,107.13
2017-09-28T18:48:58.229Z,53.87
2017-09-28T18:51:25.807Z,73.00
2017-09-28T18:53:54.110Z,62.47
2017-09-28T18:56:21.657Z,56.93
2017-09-28T18:58:49.214Z,64.73
2017-09-28T19:01:17.521Z,69.40
2017-09-28T19:03:45.083Z,62.17
2017-09-28T19:06:12.632Z,75.00
2017-09-28T19:08:40.182Z,43.70
2017-09-28T19:11:07.735Z,56.47
2017-09-28T19:13:36.052Z,62.63
2017-09-28T19:16:03.621Z,63.13
2017-09-28T19:18:31.154Z,73.67
2017-09-28T19:20:58.681Z,136.77
2017-09-28T19:23:26.246Z,131.67
2017-09-28T19:25:54.558Z,168.00
2017-09-28T19:28:22.131Z,157.43
2017-09-28T19:30:49.678Z,145.80
2017-09-28T19:33:17.240Z,97.03
2017-09-28T19:35:44.787Z,53.27
2017-09-28T19:38:13.088Z,43.17
2017-09-28T19:40:40.637Z,78.97
2017-09-28T19:43:08.189Z,43.83
2017-09-28T19:45:36.518Z,31.80
2017-09-28T19:48:04.045Z,28.63
2017-09-28T19:50:31.589Z,25.00
2017-09-28T19:52:59.905Z,29.47
2017-09-28T19:55:27.443Z,35.57
2017-09-28T19:57:55.024Z,38.27
2017-09-28T20:00:22.575Z,47.30
2017-09-28T20:02:50.128Z,41.80
2017-09-28T20:05:17.691Z,35.28
2017-09-28T20:07:45.235Z,27.30
2017-09-28T20:10:13.580Z,27.13
2017-09-28T20:12:41.114Z,30.83
2017-09-28T20:15:08.663Z,31.10
2017-09-28T20:17:36.226Z,45.00
2017-09-28T20:20:03.775Z,30.50
2017-09-28T20:22:31.363Z,31.57
2017-09-28T20:24:58.911Z,40.30
2017-09-28T20:27:26.467Z,40.93
2017-09-28T20:29:54.040Z,34.20
2017-09-28T20:32:21.573Z,40.77
2017-09-28T20:34:49.912Z,22.97
2017-09-28T20:37:17.449Z,16.70
2017-09-28T20:39:44.990Z,25.47
2017-09-28T20:42:12.559Z,23.70
2017-09-28T20:44:40.088Z,17.77
2017-09-28T20:47:07.649Z,22.90
2017-09-28T20:49:35.964Z,18.50
2017-09-28T20:52:03.524Z,16.40
2017-09-28T20:54:31.103Z,18.23
2017-09-28T20:56:58.647Z,20.50
2017-09-28T20:59:26.219Z,11.10
2017-09-28T21:01:53.773Z,20.03
2017-09-28T21:04:21.341Z,18.43
2017-09-28T21:06:48.883Z,23.47
2017-09-28T21:09:16.441Z,20.58
2017-09-28T21:11:44.775Z,20.80
2017-09-28T21:14:12.308Z,17.83
2017-09-28T21:16:39.883Z,15.80
2017-09-28T21:19:07.429Z,19.03
2017-09-28T21:21:34.958Z,22.63
2017-09-28T21:24:03.287Z,22.83
2017-09-28T21:26:30.812Z,21.80
2017-09-28T21:28:58.387Z,19.27
2017-09-28T21:31:25.960Z,15.77
2017-09-28T21:33:53.531Z,18.30
2017-09-28T21:36:21.096Z,17.37
2017-09-28T21:38:48.656Z,21.20
2017-09-28T21:41:16.227Z,17.10
2017-09-28T21:43:43.756Z,20.67
2017-09-28T21:46:11.302Z,35.23
2017-09-28T21:48:39.647Z,19.60
2017-09-28T21:51:07.208Z,16.93
2017-09-28T21:53:34.792Z,22.40
2017-09-28T21:56:03.112Z,19.87
2017-09-28T21:58:30.650Z,18.97
2017-09-28T22:00:58.978Z,19.03
2017-09-28T22:03:26.540Z,25.20
2017-09-28T22:05:54.125Z,22.83
2017-09-28T22:08:21.668Z,21.63
2017-09-28T22:10:49.236Z,14.17
2017-09-28T22:13:16.789Z,20.23
2017-09-28T22:15:44.349Z,18.87
2017-09-28T22:18:11.933Z,26.30
2017-09-28T22:20:39.484Z,26.60
2017-09-28T22:23:07.040Z,23.10
2017-09-28T22:25:35.360Z,24.40
2017-09-28T22:28:03.656Z,25.17
2017-09-28T22:30:31.209Z,22.43
2017-09-28T22:32:58.745Z,24.87
2017-09-28T22:35:27.068Z,25.33
2017-09-28T22:37:54.606Z,35.63
2017-09-28T22:40:22.160Z,25.80
2017-09-28T22:42:50.477Z,23.83
2017-09-28T22:45:18.051Z,26.83
2017-09-28T22:47:45.594Z,27.67
2017-09-28T22:50:13.125Z,21.87
2017-09-28T22:52:41.465Z,26.70
2017-09-28T22:55:08.993Z,26.17
2017-09-28T22:57:36.546Z,25.73
2017-09-28T23:00:04.104Z,25.87
2017-09-28T23:02:31.680Z,22.53
2017-09-28T23:04:59.236Z,24.27
2017-09-28T23:07:26.789Z,28.70
2017-09-28T23:09:54.360Z,25.83
2017-09-28T23:12:21.912Z,29.13
2017-09-28T23:14:49.476Z,23.17
2017-09-28T23:17:17.028Z,30.67
2017-09-28T23:19:45.321Z,23.47
2017-09-28T23:22:12.883Z,24.33
2017-09-28T23:24:40.440Z,24.33
2017-09-28T23:27:08.023Z,26.37
2017-09-28T23:29:35.577Z,22.43
2017-09-28T23:32:03.128Z,28.57
2017-09-28T23:34:30.689Z,19.77
2017-09-28T23:36:58.244Z,21.47
2017-09-28T23:39:26.572Z,27.67
2017-09-28T23:41:54.118Z,24.50
2017-09-28T23:44:21.663Z,32.73
2017-09-28T23:46:49.217Z,37.00
2017-09-28T23:49:16.764Z,27.23
2017-09-28T23:51:45.092Z,27.53
2017-09-28T23:54:12.639Z,24.53
2017-09-28T23:56:40.219Z,22.00
2017-09-28T23:59:07.751Z,29.60
